Time;durP1;ratioP1;P1;durP2;ratioP2;P2;SDS_P1;SDS_P2;PMS_P1;PMS_P2;Temp;Humidity;BMP_temperature;BMP_pressure;BME280_temperature;BME280_humidity;BME280_pressure;Samples;Min_cycle;Max_cycle;Signal;HPM_P1;HPM_P2
2022/06/13 00:00:49;;;;;;;11.57;5.15;;;;;;;12.50;78.36;101997.72;4947793;28;20043;-82
2022/06/13 00:03:15;;;;;;;11.15;5.22;;;;;;;12.47;78.50;101997.06;4966993;28;20110;-82
2022/06/13 00:05:40;;;;;;;9.68;5.03;;;;;;;12.43;78.49;101993.78;4966365;28;20023;-82
2022/06/13 00:08:06;;;;;;;10.75;5.30;;;;;;;12.38;78.70;101987.06;4969878;28;20063;-82
2022/06/13 00:10:31;;;;;;;9.85;5.00;;;;;;;12.34;78.58;101985.56;4969656;28;20030;-82
2022/06/13 00:12:56;;;;;;;7.03;4.55;;;;;;;12.30;78.82;101991.97;4953896;28;20023;-82
2022/06/13 00:15:22;;;;;;;9.80;5.35;;;;;;;12.30;78.94;101987.56;4950955;28;20103;-82
2022/06/13 00:17:47;;;;;;;11.80;5.15;;;;;;;12.28;79.15;101992.09;4948642;28;20560;-82
2022/06/13 00:20:13;;;;;;;11.85;5.22;;;;;;;12.22;79.11;101987.19;4949184;28;20031;-82
2022/06/13 00:22:39;;;;;;;9.82;5.13;;;;;;;12.24;79.32;101972.09;4950645;28;20031;-82
2022/06/13 00:25:05;;;;;;;12.52;5.63;;;;;;;12.23;79.11;101975.69;4948648;28;20493;-82
2022/06/13 00:27:31;;;;;;;13.00;5.40;;;;;;;12.19;78.78;101977.69;4949361;28;20063;-81
2022/06/13 00:29:56;;;;;;;14.15;6.40;;;;;;;12.12;79.45;101979.00;4948015;28;20577;-81
2022/06/13 00:32:22;;;;;;;10.57;5.60;;;;;;;12.16;79.28;101979.66;4948766;28;20082;-82
2022/06/13 00:34:48;;;;;;;10.30;5.65;;;;;;;12.11;80.04;101974.69;4949110;28;20279;-82
2022/06/13 00:37:13;;;;;;;14.10;6.15;;;;;;;12.15;79.58;101970.06;4965786;28;20046;-82
2022/06/13 00:39:39;;;;;;;9.82;5.75;;;;;;;12.12;79.88;101971.09;4964075;28;20027;-81
2022/06/13 00:42:05;;;;;;;13.45;6.20;;;;;;;12.08;80.21;101968.75;4956289;28;20025;-82
2022/06/13 00:44:34;;;;;;;13.35;6.53;;;;;;;12.08;80.28;101963.47;4969624;28;20443;-82
2022/06/13 00:47:00;;;;;;;11.68;6.20;;;;;;;12.11;80.56;101971.19;4954995;28;20030;-82
2022/06/13 00:49:33;;;;;;;15.48;6.88;;;;;;;12.15;80.84;101970.06;4950630;28;20098;-81
2022/06/13 00:52:05;;;;;;;14.27;6.32;;;;;;;12.19;80.34;101961.84;4949324;28;20562;-82
2022/06/13 00:54:33;;;;;;;10.25;6.45;;;;;;;12.16;80.77;101961.19;4949362;28;20031;-82
2022/06/13 00:56:59;;;;;;;10.27;6.20;;;;;;;12.23;80.58;101957.22;4948913;28;20046;-82
2022/06/13 00:59:27;;;;;;;11.50;6.38;;;;;;;12.26;80.82;101959.66;4950276;28;20463;-81
2022/06/13 01:01:53;;;;;;;17.38;6.22;;;;;;;12.33;80.16;101963.59;4948334;28;20038;-82
2022/06/13 01:04:18;;;;;;;13.32;6.50;;;;;;;12.38;80.43;101961.53;4954672;28;20027;-82
2022/06/13 01:06:47;;;;;;;12.85;6.75;;;;;;;12.40;80.82;101972.81;4970042;28;20139;-82
2022/06/13 01:09:14;;;;;;;15.40;7.07;;;;;;;12.44;80.12;101958.50;4959124;28;20043;-82
2022/06/13 01:11:49;;;;;;;14.45;7.30;;;;;;;12.45;80.20;101962.84;4948850;28;20023;-82
2022/06/13 01:14:26;;;;;;;13.27;6.47;;;;;;;12.51;80.10;101966.88;4950996;28;20031;-82
2022/06/13 01:17:22;;;;;;;14.07;6.50;;;;;;;12.55;80.09;101969.22;4950673;28;20374;-81
2022/06/13 01:20:05;;;;;;;14.00;7.07;;;;;;;12.60;80.95;101970.72;4947334;28;20139;-81
2022/06/13 01:23:07;;;;;;;17.10;7.30;;;;;;;12.65;80.89;101964.19;4949866;28;20035;-81
2022/06/13 01:25:52;;;;;;;12.88;7.28;;;;;;;12.70;81.06;101962.09;4950577;28;20111;-81
2022/06/13 01:28:17;;;;;;;11.63;6.88;;;;;;;12.72;81.62;101964.63;4956435;28;20057;-81
2022/06/13 01:30:48;;;;;;;16.38;8.05;;;;;;;12.72;81.28;101965.47;4953984;28;20031;-82
2022/06/13 01:33:32;;;;;;;14.13;7.40;;;;;;;12.77;81.45;101965.19;4957339;28;20070;-81
2022/06/13 01:36:32;;;;;;;14.38;7.50;;;;;;;12.81;80.22;101948.22;4952353;28;20023;-81
2022/06/13 01:39:35;;;;;;;16.08;7.45;;;;;;;12.82;80.24;101942.84;4956638;28;20190;-81
2022/06/13 01:42:31;;;;;;;13.85;7.88;;;;;;;12.84;81.28;101942.72;4956708;28;20077;-81
2022/06/13 01:45:15;;;;;;;18.70;7.70;;;;;;;12.84;82.00;101940.94;4954772;28;20035;-81
2022/06/13 01:47:53;;;;;;;12.50;7.32;;;;;;;12.88;81.66;101938.94;4954761;28;20086;-81
2022/06/13 01:50:39;;;;;;;18.33;7.65;;;;;;;12.89;81.86;101942.41;4953396;28;20031;-81
2022/06/13 01:53:23;;;;;;;13.70;7.05;;;;;;;12.92;81.02;101935.13;4954625;28;20485;-82
2022/06/13 01:56:02;;;;;;;17.65;8.02;;;;;;;12.95;80.24;101945.50;4953642;28;20039;-82
2022/06/13 01:58:47;;;;;;;19.65;7.53;;;;;;;12.92;80.05;101948.34;4955461;28;20027;-81
2022/06/13 02:01:29;;;;;;;15.15;7.43;;;;;;;12.95;79.69;101950.78;4952914;28;20031;-81
2022/06/13 02:04:21;;;;;;;15.32;7.15;;;;;;;13.00;79.38;101951.31;4937826;28;20060;-81
2022/06/13 02:07:26;;;;;;;17.40;7.82;;;;;;;13.00;78.80;101943.41;4953079;29;20034;-81
2022/06/13 02:10:06;;;;;;;12.27;7.78;;;;;;;12.98;78.43;101945.28;4970532;28;20049;-81
2022/06/13 02:12:35;;;;;;;13.82;7.55;;;;;;;12.98;79.31;101945.28;4955037;28;20043;-81
2022/06/13 02:15:14;;;;;;;13.10;8.15;;;;;;;12.98;79.16;101955.84;4957147;28;20490;-81
2022/06/13 02:17:50;;;;;;;14.13;7.80;;;;;;;13.01;78.68;101960.09;4958657;28;20026;-82
2022/06/13 02:20:21;;;;;;;15.43;7.68;;;;;;;12.97;79.19;101964.72;4971205;28;20482;-82
2022/06/13 02:22:55;;;;;;;15.07;8.00;;;;;;;13.02;78.61;101960.00;4955473;28;20039;-81
2022/06/13 02:25:24;;;;;;;12.70;8.27;;;;;;;12.97;79.28;101961.25;4955253;28;20031;-81
2022/06/13 02:28:18;;;;;;;12.48;7.43;;;;;;;12.99;79.27;101954.91;4956801;28;20199;-81
2022/06/13 02:31:10;;;;;;;18.15;7.88;;;;;;;13.05;79.51;101951.84;4971540;28;20058;-81
2022/06/13 02:33:42;;;;;;;13.73;8.27;;;;;;;13.06;79.77;101953.56;4949003;28;20067;-81
2022/06/13 02:36:13;;;;;;;15.82;8.75;;;;;;;13.07;79.89;101954.41;4955849;28;20027;-81
2022/06/13 02:38:50;;;;;;;19.90;8.85;;;;;;;13.13;80.03;101953.97;4956008;28;20027;-81
2022/06/13 02:41:20;;;;;;;15.27;8.07;;;;;;;13.14;79.95;101951.22;4940559;29;20119;-81
2022/06/13 02:43:55;;;;;;;14.45;8.77;;;;;;;13.18;80.50;101942.19;4952430;29;20087;-82
2022/06/13 02:46:38;;;;;;;17.88;9.07;;;;;;;13.24;79.86;101942.75;4952303;29;20035;-81
2022/06/13 02:49:23;;;;;;;16.75;8.35;;;;;;;13.23;79.98;101941.06;4952985;29;20030;-81
2022/06/13 02:52:00;;;;;;;18.33;8.73;;;;;;;13.24;80.40;101935.66;4953322;28;20262;-81
2022/06/13 02:54:35;;;;;;;18.10;9.15;;;;;;;13.24;80.74;101945.38;4945754;28;20038;-81
2022/06/13 02:57:43;;;;;;;17.15;9.10;;;;;;;13.28;80.18;101947.72;4948845;29;20062;-81
2022/06/13 03:00:37;;;;;;;14.77;8.65;;;;;;;13.26;80.47;101943.50;4933220;29;20035;-81
2022/06/13 03:03:25;;;;;;;18.35;9.25;;;;;;;13.25;80.57;101942.63;4948739;29;20588;-81
2022/06/13 03:06:00;;;;;;;14.35;8.25;;;;;;;13.23;80.91;101939.25;4966930;28;20114;-82
2022/06/13 03:08:48;;;;;;;16.80;8.93;;;;;;;13.25;81.00;101937.34;4971665;28;20097;-81
2022/06/13 03:11:40;;;;;;;18.08;9.07;;;;;;;13.24;81.12;101940.09;4964736;28;20027;-81
2022/06/13 03:14:34;;;;;;;17.23;9.40;;;;;;;13.19;81.37;101940.38;4952242;29;20031;-81
2022/06/13 03:17:32;;;;;;;21.85;9.40;;;;;;;13.18;81.46;101936.91;4951711;29;20035;-81
2022/06/13 03:20:15;;;;;;;19.35;9.50;;;;;;;13.12;81.83;101953.13;4952974;29;20082;-82
2022/06/13 03:22:44;;;;;;;;;;;;;;;13.27;79.25;101955.75;4950895;29;20027;-81
2022/06/13 03:25:42;;;;;;;21.77;9.50;;;;;;;13.15;81.40;101947.63;4967485;28;20001;-81
2022/06/13 03:28:35;;;;;;;19.63;9.18;;;;;;;13.16;81.64;101946.69;4951070;29;20023;-82
2022/06/13 03:31:12;;;;;;;17.67;8.88;;;;;;;13.07;82.40;101955.25;4934051;29;20019;-81
2022/06/13 03:33:42;;;;;;;17.77;9.57;;;;;;;13.07;82.79;101955.25;4950996;29;20094;-82
2022/06/13 03:36:11;;;;;;;20.05;9.23;;;;;;;13.02;82.97;101952.06;4951852;29;20534;-80
2022/06/13 03:38:46;;;;;;;25.17;9.73;;;;;;;13.00;83.35;101961.03;4953172;28;20118;-80
2022/06/13 03:41:17;;;;;;;18.67;9.30;;;;;;;12.97;83.56;101958.59;4952965;28;20054;-81
2022/06/13 03:43:52;;;;;;;20.80;9.32;;;;;;;12.95;83.48;101961.34;4951621;28;20034;-81
2022/06/13 03:46:30;;;;;;;22.30;9.75;;;;;;;12.92;83.51;101961.56;4951705;28;20485;-81
2022/06/13 03:49:01;;;;;;;18.42;8.95;;;;;;;12.88;83.51;101965.34;4964827;28;20026;-81
2022/06/13 03:51:41;;;;;;;21.33;9.85;;;;;;;12.90;83.41;101963.44;4971699;28;20026;-81
2022/06/13 03:54:31;;;;;;;18.23;9.27;;;;;;;12.93;83.28;101971.16;4971737;28;20031;-81
2022/06/13 03:57:03;;;;;;;23.10;9.45;;;;;;;12.80;84.46;101964.97;4949700;28;20027;-82
2022/06/13 03:59:47;;;;;;;14.80;9.23;;;;;;;12.84;84.13;101966.50;4960827;28;20042;-81
2022/06/13 04:02:16;;;;;;;15.77;9.00;;;;;;;12.79;84.61;101973.84;4953942;28;20038;-81
2022/06/13 04:04:46;;;;;;;17.88;9.18;;;;;;;12.73;84.89;101971.59;4958142;28;20027;-81
2022/06/13 04:07:12;;;;;;;21.83;10.45;;;;;;;12.73;85.15;101972.47;4972277;28;20034;-80
2022/06/13 04:09:43;;;;;;;17.55;9.55;;;;;;;12.76;84.70;101971.41;4960384;28;20051;-80
2022/06/13 04:12:16;;;;;;;22.27;10.13;;;;;;;12.69;84.92;101976.25;4952233;29;20023;-81
2022/06/13 04:15:07;;;;;;;16.00;9.85;;;;;;;12.69;85.27;101978.03;4952608;29;20035;-81
2022/06/13 04:17:47;;;;;;;18.25;9.68;;;;;;;12.66;85.48;101980.88;4956928;28;20520;-80
2022/06/13 04:20:21;;;;;;;21.77;9.95;;;;;;;12.65;85.78;101973.91;4939355;29;20032;-80
2022/06/13 04:22:58;;;;;;;17.75;9.82;;;;;;;12.66;85.46;101975.59;4933778;29;20720;-81
2022/06/13 04:25:41;;;;;;;20.55;10.48;;;;;;;12.60;85.99;101981.28;4947063;29;20477;-81
2022/06/13 04:28:12;;;;;;;17.77;10.27;;;;;;;12.65;85.95;101989.75;4947392;29;20032;-80
2022/06/13 04:30:41;;;;;;;20.50;10.63;;;;;;;12.61;86.08;101988.25;4946787;29;20028;-80
2022/06/13 04:33:28;;;;;;;19.30;10.63;;;;;;;12.66;86.58;101991.44;4932478;29;20529;-81
2022/06/13 04:35:55;;;;;;;21.13;10.40;;;;;;;12.70;86.70;101987.66;4952092;28;20034;-80
2022/06/13 04:38:23;;;;;;;20.23;10.93;;;;;;;12.71;87.35;101989.34;4949191;29;20037;-80
2022/06/13 04:40:53;;;;;;;23.65;10.77;;;;;;;12.78;86.71;101990.63;4942089;28;20114;-81
2022/06/13 04:43:23;;;;;;;21.60;10.85;;;;;;;12.83;86.53;101993.84;4954011;28;20031;-80
2022/06/13 04:46:03;;;;;;;24.70;11.60;;;;;;;12.89;86.92;101996.09;4950817;29;20307;-80
2022/06/13 04:48:32;;;;;;;24.20;11.60;;;;;;;12.95;87.34;101997.47;4951825;28;20023;-80
2022/06/13 04:51:02;;;;;;;23.13;11.45;;;;;;;12.99;87.44;101996.34;4952088;28;20389;-81
2022/06/13 04:53:36;;;;;;;20.27;11.60;;;;;;;13.07;86.95;102000.16;4947307;28;20474;-81
2022/06/13 04:56:01;;;;;;;19.30;11.90;;;;;;;13.15;86.85;102000.50;4951634;29;20038;-82
2022/06/13 04:58:31;;;;;;;24.10;12.38;;;;;;;13.13;87.59;101997.09;4951672;28;20015;-82
2022/06/13 05:01:05;;;;;;;23.73;11.60;;;;;;;13.19;87.86;102006.44;4948747;28;20442;-81
2022/06/13 05:03:37;;;;;;;25.55;13.52;;;;;;;13.27;87.74;102008.63;4963329;28;20030;-80
2022/06/13 05:06:06;;;;;;;20.75;12.02;;;;;;;13.38;87.44;102009.56;4968343;28;20834;-80
2022/06/13 05:08:36;;;;;;;25.50;12.02;;;;;;;13.44;87.50;102008.31;4946479;28;20046;-81
2022/06/13 05:11:27;;;;;;;22.75;12.48;;;;;;;13.56;86.83;102010.13;4948465;29;20027;-83
2022/06/13 05:14:00;;;;;;;27.15;12.52;;;;;;;13.60;87.55;102013.41;4918712;28;20035;-81
2022/06/13 05:16:47;;;;;;;26.85;12.68;;;;;;;13.67;87.62;102012.91;4950697;28;20023;-81
2022/06/13 05:19:35;;;;;;;26.80;12.57;;;;;;;13.79;86.88;102012.06;4950328;28;20024;-81
2022/06/13 05:22:09;;;;;;;28.48;12.40;;;;;;;13.82;87.56;102021.56;4946971;29;20035;-81
2022/06/13 05:24:58;;;;;;;24.60;12.10;;;;;;;13.91;86.84;102025.38;4948389;29;20023;-82
2022/06/13 05:27:23;;;;;;;29.25;12.88;;;;;;;13.98;87.53;102016.06;4964691;28;20037;-81
2022/06/13 05:29:48;;;;;;;26.42;12.38;;;;;;;14.07;86.63;102015.44;4948432;29;20102;-82
2022/06/13 05:32:15;;;;;;;27.13;12.35;;;;;;;14.13;86.74;102020.31;4950233;28;20090;-81
2022/06/13 05:34:43;;;;;;;21.23;11.45;;;;;;;14.22;85.95;102024.09;4949153;28;20437;-81
2022/06/13 05:37:11;;;;;;;25.33;11.73;;;;;;;14.30;85.01;102022.59;4965650;28;20042;-81
2022/06/13 05:39:37;;;;;;;24.30;10.85;;;;;;;14.38;84.39;102030.84;4947004;29;20473;-81
2022/06/13 05:42:03;;;;;;;22.83;11.52;;;;;;;14.51;84.34;102033.50;4945828;29;20038;-82
2022/06/13 05:44:29;;;;;;;21.92;11.05;;;;;;;14.60;84.30;102034.66;4931162;29;20035;-82
2022/06/13 05:46:55;;;;;;;23.92;10.90;;;;;;;14.67;83.75;102033.25;4950906;29;20031;-81
2022/06/13 05:49:21;;;;;;;26.83;11.95;;;;;;;14.77;83.80;102036.91;4948890;29;20039;-82
2022/06/13 05:51:46;;;;;;;27.80;11.93;;;;;;;14.83;83.65;102036.50;4950880;28;20027;-81
2022/06/13 05:54:13;;;;;;;26.45;12.30;;;;;;;14.83;84.02;102044.44;4965954;28;20045;-81
2022/06/13 05:56:39;;;;;;;25.88;11.70;;;;;;;14.88;84.25;102044.94;4950205;28;20047;-82
2022/06/13 05:59:05;;;;;;;24.20;11.90;;;;;;;14.95;84.00;102048.00;4949586;29;20029;-81
2022/06/13 06:01:32;;;;;;;20.65;11.05;;;;;;;15.00;83.87;102053.81;4950816;28;20043;-81
2022/06/13 06:03:57;;;;;;;29.70;12.10;;;;;;;15.08;82.93;102055.88;4951960;28;20059;-81
2022/06/13 06:06:26;;;;;;;25.00;11.35;;;;;;;15.14;83.00;102060.72;4970505;28;20456;-82
2022/06/13 06:08:54;;;;;;;22.27;11.05;;;;;;;15.23;83.14;102065.38;4969877;28;20133;-82
2022/06/13 06:11:20;;;;;;;25.52;10.63;;;;;;;15.21;81.89;102061.97;4967066;28;20021;-82
2022/06/13 06:13:46;;;;;;;24.50;10.55;;;;;;;15.34;81.64;102068.06;4954449;28;20386;-82
2022/06/13 06:16:17;;;;;;;23.95;10.48;;;;;;;15.37;80.72;102073.13;4953637;28;20037;-82
2022/06/13 06:18:43;;;;;;;23.20;9.60;;;;;;;15.48;80.51;102083.78;4965643;28;20062;-81
2022/06/13 06:21:09;;;;;;;24.48;10.07;;;;;;;15.58;80.62;102081.31;4972167;28;20097;-82
2022/06/13 06:23:35;;;;;;;23.08;9.00;;;;;;;15.62;78.68;102083.66;4971651;28;20029;-82
2022/06/13 06:26:02;;;;;;;22.27;9.27;;;;;;;15.66;78.54;102074.50;4985336;28;20089;-82
2022/06/13 06:28:27;;;;;;;17.85;8.07;;;;;;;15.73;77.99;102074.03;4940963;28;20031;-81
2022/06/13 06:30:56;;;;;;;17.35;7.70;;;;;;;15.86;77.30;102078.25;4948299;29;20032;-81
2022/06/13 06:33:21;;;;;;;19.85;7.13;;;;;;;15.86;75.10;102080.06;4949861;29;20031;-82
2022/06/13 06:35:48;;;;;;;15.95;6.38;;;;;;;15.79;73.94;102084.16;4952211;29;20027;-82
2022/06/13 06:38:14;;;;;;;14.98;6.20;;;;;;;15.79;73.96;102089.47;4952064;29;20031;-83
2022/06/13 06:40:39;;;;;;;18.30;5.70;;;;;;;15.74;73.83;102091.63;4950173;28;20031;-81
2022/06/13 06:43:05;;;;;;;15.18;5.63;;;;;;;15.76;74.06;102100.31;4953744;28;20059;-82
2022/06/13 06:45:31;;;;;;;12.65;5.03;;;;;;;15.85;72.52;102096.97;4951312;29;20090;-82
2022/06/13 06:47:57;;;;;;;15.20;5.22;;;;;;;15.89;71.38;102101.06;4950976;29;20517;-82
2022/06/13 06:50:26;;;;;;;14.98;4.95;;;;;;;16.04;72.21;102099.91;4953001;29;20027;-83
2022/06/13 06:52:52;;;;;;;12.50;4.50;;;;;;;16.08;71.61;102100.53;4952981;28;20030;-82
2022/06/13 07:00:50;;;;;;;11.70;3.58;;;;;;;16.29;67.82;102110.31;4933838;29;20050;-82
2022/06/13 07:03:15;;;;;;;10.93;3.38;;;;;;;16.30;65.46;102106.69;4943506;29;20490;-82
2022/06/13 07:05:40;;;;;;;10.05;3.30;;;;;;;16.43;66.94;102106.59;4965081;28;20065;-82
2022/06/13 07:08:06;;;;;;;11.88;3.33;;;;;;;16.60;64.20;102107.91;4971645;28;20026;-81
2022/06/13 07:10:32;;;;;;;11.95;3.17;;;;;;;16.73;63.07;102103.34;4971727;28;20022;-80
2022/06/13 07:12:58;;;;;;;9.35;3.17;;;;;;;16.94;62.77;102105.25;4957040;28;20027;-81
2022/06/13 07:15:23;;;;;;;12.13;2.70;;;;;;;17.19;63.11;102099.59;4952890;29;20038;-82
2022/06/13 07:17:48;;;;;;;10.40;2.78;;;;;;;17.49;62.07;102099.75;4958233;28;20027;-82
2022/06/13 07:20:14;;;;;;;9.10;2.72;;;;;;;17.54;60.55;102105.53;4970111;28;20026;-83
2022/06/13 07:22:49;;;;;;;10.82;2.85;;;;;;;17.76;61.03;102114.44;4969952;28;20092;-82
2022/06/13 07:25:21;;;;;;;9.50;2.83;;;;;;;17.98;59.80;102108.97;4950535;28;20027;-82
2022/06/13 07:27:46;;;;;;;8.85;2.95;;;;;;;18.03;58.76;102106.78;4951134;28;20030;-83
2022/06/13 07:30:13;;;;;;;11.65;2.95;;;;;;;18.55;59.48;102118.25;4952298;28;20110;-83
2022/06/13 07:32:39;;;;;;;8.05;2.72;;;;;;;18.50;56.66;102109.81;4951595;28;20027;-82
2022/06/13 07:35:06;;;;;;;8.18;2.53;;;;;;;18.55;56.69;102112.91;4951454;28;20106;-83
2022/06/13 07:40:17;;;;;;;10.93;3.00;;;;;;;18.99;56.28;102110.84;4952199;28;20102;-82
2022/06/13 07:42:47;;;;;;;6.82;2.50;;;;;;;18.78;55.59;102106.41;4965997;28;20477;-82
2022/06/13 07:45:15;;;;;;;7.32;2.50;;;;;;;18.84;57.00;102106.88;4952206;28;20402;-82
2022/06/13 07:47:42;;;;;;;10.32;2.83;;;;;;;18.59;55.04;102122.31;4949651;28;20062;-82
2022/06/13 07:50:10;;;;;;;10.38;2.90;;;;;;;18.57;55.86;102121.63;4964889;28;20401;-82
2022/06/13 07:52:35;;;;;;;9.80;2.90;;;;;;;19.04;55.68;102119.25;4947189;28;20030;-83
2022/06/13 07:55:01;;;;;;;11.65;3.55;;;;;;;19.19;54.41;102122.38;4959612;28;20046;-82
2022/06/13 07:57:26;;;;;;;11.35;3.90;;;;;;;19.26;53.32;102126.19;4957958;28;20638;-83
2022/06/13 07:59:51;;;;;;;8.07;3.15;;;;;;;19.43;53.24;102120.16;4951454;28;20019;-82
2022/06/13 08:02:18;;;;;;;8.40;2.80;;;;;;;19.36;53.66;102124.38;4951366;28;20069;-82
2022/06/13 08:04:44;;;;;;;9.18;2.78;;;;;;;19.53;53.87;102122.84;4974443;28;20030;-83
2022/06/13 08:07:11;;;;;;;8.32;3.30;;;;;;;19.85;54.40;102130.56;4971296;28;20033;-82
2022/06/13 08:09:37;;;;;;;9.25;3.10;;;;;;;19.91;51.81;102135.34;4957921;28;20737;-82
2022/06/13 08:12:04;;;;;;;9.43;3.00;;;;;;;20.06;52.55;102143.78;4952404;28;20031;-82
2022/06/13 08:14:30;;;;;;;9.75;3.45;;;;;;;20.22;52.13;102144.00;4971159;28;20142;-81
2022/06/13 08:16:55;;;;;;;9.27;3.30;;;;;;;20.42;50.44;102143.00;4966909;28;20110;-83
2022/06/13 08:19:21;;;;;;;9.65;2.70;;;;;;;20.55;48.95;102143.53;4985033;28;20035;-82
2022/06/13 08:21:46;;;;;;;7.90;2.10;;;;;;;20.58;47.30;102140.56;4969585;28;20023;-82
2022/06/13 08:24:11;;;;;;;4.35;1.73;;;;;;;20.42;47.95;102143.00;4956855;28;20027;-83
2022/06/13 08:26:37;;;;;;;8.50;2.20;;;;;;;20.08;48.39;102148.00;4958051;28;20023;-83
2022/06/13 08:29:03;;;;;;;6.65;1.92;;;;;;;19.77;50.50;102155.31;4971445;28;20027;-83
2022/06/13 08:31:31;;;;;;;9.32;2.42;;;;;;;19.31;49.82;102154.16;4970085;28;20500;-83
2022/06/13 08:33:56;;;;;;;10.98;2.50;;;;;;;18.88;52.16;102158.97;4970892;28;20081;-84
2022/06/13 08:36:22;;;;;;;7.88;2.50;;;;;;;18.64;53.17;102165.44;4965914;28;20031;-84
2022/06/13 08:38:47;;;;;;;8.27;2.60;;;;;;;18.83;53.87;102167.38;4954791;28;20026;-83
2022/06/13 08:41:36;;;;;;;9.98;2.90;;;;;;;19.30;54.62;102167.63;4958380;28;20024;-83
2022/06/13 08:44:41;;;;;;;9.07;2.75;;;;;;;19.84;54.18;102167.13;4951117;28;20094;-83
2022/06/13 08:47:21;;;;;;;9.70;3.33;;;;;;;20.18;52.12;102169.34;4949513;28;20023;-79
2022/06/13 08:50:07;;;;;;;7.97;2.20;;;;;;;20.32;49.09;102160.84;4950088;28;20035;-79
2022/06/13 08:52:49;;;;;;;5.97;1.98;;;;;;;20.40;50.08;102168.19;4949654;28;20031;-78
2022/06/13 08:55:30;;;;;;;4.32;2.10;;;;;;;20.71;49.05;102166.09;4949682;28;20090;-78
2022/06/13 08:58:08;;;;;;;6.22;2.63;;;;;;;20.81;49.80;102166.91;4949353;28;20734;-78
2022/06/13 09:00:35;;;;;;;9.02;2.63;;;;;;;20.62;48.00;102167.84;4947549;28;20039;-79
2022/06/13 09:03:11;;;;;;;10.55;2.35;;;;;;;20.51;48.94;102182.25;4950793;28;20421;-79
2022/06/13 09:05:52;;;;;;;7.32;1.88;;;;;;;20.28;48.03;102176.34;4959873;28;20023;-78
2022/06/13 09:08:27;;;;;;;5.18;1.60;;;;;;;20.25;48.75;102173.13;4949568;28;20101;-78
2022/06/13 09:11:11;;;;;;;6.57;1.65;;;;;;;20.20;47.86;102181.56;4950168;28;20027;-78
2022/06/13 09:13:48;;;;;;;4.55;1.50;;;;;;;19.81;47.79;102187.94;4949593;28;20078;-79
2022/06/13 09:16:32;;;;;;;5.53;1.60;;;;;;;19.49;47.89;102193.50;4947581;28;20027;-78
2022/06/13 09:19:19;;;;;;;7.25;1.73;;;;;;;19.66;50.66;102192.88;4965272;28;20102;-79
2022/06/13 09:21:52;;;;;;;6.75;1.50;;;;;;;19.91;48.19;102196.78;4967433;28;20027;-79
2022/06/13 09:24:39;;;;;;;5.40;1.10;;;;;;;19.84;47.52;102196.50;4968801;28;20069;-79
2022/06/13 09:27:09;;;;;;;5.55;1.52;;;;;;;19.66;47.66;102198.22;4966026;28;20152;-79
2022/06/13 09:29:55;;;;;;;4.82;1.38;;;;;;;19.87;48.58;102193.56;4950297;28;20478;-79
2022/06/13 09:32:28;;;;;;;5.20;1.38;;;;;;;19.98;46.47;102196.06;4950748;28;20031;-78
2022/06/13 09:35:04;;;;;;;5.35;1.23;;;;;;;19.76;46.88;102199.03;4948647;28;20049;-79
2022/06/13 09:37:40;;;;;;;5.18;1.40;;;;;;;19.69;47.70;102204.09;4950090;28;20055;-78
2022/06/13 09:40:07;;;;;;;4.68;1.27;;;;;;;19.54;48.38;102210.81;4950192;28;20071;-78
2022/06/13 09:42:48;;;;;;;3.78;1.17;;;;;;;19.37;49.58;102222.16;4948806;28;20429;-78
2022/06/13 09:45:31;;;;;;;6.13;1.92;;;;;;;19.40;51.08;102222.72;4948435;28;20027;-78
2022/06/13 09:48:22;;;;;;;7.38;2.63;;;;;;;19.32;52.50;102222.56;4950019;28;20118;-78
2022/06/13 09:51:10;;;;;;;6.70;2.28;;;;;;;19.29;52.86;102232.66;4954864;28;20438;-79
2022/06/13 09:54:06;;;;;;;5.10;1.98;;;;;;;19.27;52.74;102230.13;4972043;28;20477;-79
2022/06/13 09:56:32;;;;;;;7.53;2.80;;;;;;;19.02;52.24;102233.28;4970286;28;20054;-78
2022/06/13 09:59:12;;;;;;;9.13;4.03;;;;;;;18.99;52.32;102233.53;4964279;28;20121;-78
2022/06/13 10:02:04;;;;;;;13.70;4.10;;;;;;;19.08;52.83;102240.72;4950834;28;20035;-78
2022/06/13 10:04:39;;;;;;;15.18;3.45;;;;;;;19.12;51.98;102236.81;4955057;28;20035;-79
2022/06/13 10:07:28;;;;;;;8.75;2.08;;;;;;;19.18;50.98;102235.41;4947227;28;20023;-79
2022/06/13 10:10:12;;;;;;;8.50;2.03;;;;;;;19.21;51.26;102241.38;4962354;28;20122;-79
2022/06/13 10:12:47;;;;;;;4.20;1.55;;;;;;;19.20;49.34;102244.97;4950008;28;20111;-78
2022/06/13 10:15:30;;;;;;;6.15;1.50;;;;;;;19.08;49.04;102232.72;4957114;28;20110;-78
2022/06/13 10:18:11;;;;;;;5.65;1.75;;;;;;;19.21;49.58;102233.34;4947887;28;20034;-78
2022/06/13 10:20:56;;;;;;;5.80;1.58;;;;;;;19.23;50.56;102236.72;4948463;28;20039;-78
2022/06/13 10:23:40;;;;;;;7.30;1.60;;;;;;;19.73;50.28;102233.22;4951450;28;20043;-78
2022/06/13 10:26:25;;;;;;;7.85;2.70;;;;;;;19.97;50.58;102230.94;4951007;28;20031;-80
2022/06/13 10:29:17;;;;;;;6.30;3.38;;;;;;;19.92;48.74;102230.53;4966150;28;20481;-79
2022/06/13 10:32:02;;;;;;;6.53;2.28;;;;;;;19.85;49.43;102229.41;4941670;28;20126;-79
2022/06/13 10:34:39;;;;;;;8.63;1.75;;;;;;;19.89;48.57;102233.50;4953594;28;20027;-78
2022/06/13 10:37:32;;;;;;;9.10;2.80;;;;;;;20.29;48.80;102231.50;4951682;28;20077;-79
2022/06/13 10:40:01;;;;;;;5.30;2.10;;;;;;;20.48;45.55;102232.50;4951828;28;20030;-79
2022/06/13 10:42:31;;;;;;;8.10;2.03;;;;;;;20.68;47.36;102235.94;4968553;28;20111;-79
2022/06/13 10:44:57;;;;;;;5.75;2.20;;;;;;;20.92;45.50;102220.25;4952874;28;20112;-79
2022/06/13 10:47:55;;;;;;;8.45;3.15;;;;;;;21.33;46.68;102226.13;4952091;28;20040;-79
2022/06/13 10:50:55;;;;;;;13.70;2.63;;;;;;;21.45;46.79;102214.22;4950345;28;20026;-79
2022/06/13 10:53:35;;;;;;;7.53;1.80;;;;;;;21.36;46.77;102236.53;4929816;28;20089;-77
2022/06/13 10:56:06;;;;;;;6.97;2.42;;;;;;;21.68;46.01;102228.88;4965310;28;20485;-79
2022/06/13 10:58:50;;;;;;;8.63;2.95;;;;;;;22.01;45.56;102221.09;4949239;28;20081;-80
2022/06/13 11:01:20;;;;;;;7.88;3.30;;;;;;;21.53;44.09;102233.88;4950406;28;20498;-79
2022/06/13 11:04:03;;;;;;;7.55;2.67;;;;;;;21.19;45.74;102230.94;4952042;28;20560;-77
2022/06/13 11:06:42;;;;;;;4.60;1.70;;;;;;;21.14;44.37;102235.91;4969400;28;20058;-78
2022/06/13 11:09:36;;;;;;;5.10;1.58;;;;;;;21.04;46.49;102237.78;4959113;28;20416;-77
2022/06/13 11:12:05;;;;;;;12.00;1.77;;;;;;;21.04;44.80;102234.28;4951289;28;20059;-78
2022/06/13 11:22:37;;;;;;;5.78;1.65;;;;;;;21.00;43.62;102249.78;4966469;28;20037;-79
2022/06/13 11:23:03;;;;;;;3.60;1.23;;;;;;;20.57;44.42;102251.19;4971803;28;20053;-78
2022/06/13 11:25:34;;;;;;;4.60;1.30;;;;;;;20.48;45.38;102249.38;4959489;28;20105;-78
2022/06/13 11:28:01;;;;;;;4.68;1.30;;;;;;;20.47;45.19;102250.38;4951790;28;20039;-78
2022/06/13 11:30:27;;;;;;;4.57;1.10;;;;;;;20.82;44.87;102239.03;4951944;28;20505;-78
2022/06/13 11:33:17;;;;;;;8.68;1.40;;;;;;;21.18;44.76;102244.47;4951628;28;20035;-78
2022/06/13 11:35:54;;;;;;;3.17;1.20;;;;;;;21.37;41.35;102248.94;4951260;28;20027;-82
2022/06/13 11:38:35;;;;;;;6.78;1.55;;;;;;;21.41;40.48;102235.09;4948658;28;20040;-81
2022/06/13 11:41:16;;;;;;;6.47;1.27;;;;;;;21.32;42.43;102240.50;4952077;28;20396;-79
2022/06/13 11:43:50;;;;;;;8.60;1.42;;;;;;;21.02;42.58;102245.13;4952057;28;20480;-80
2022/06/13 11:46:37;;;;;;;4.70;1.10;;;;;;;20.77;43.49;102245.78;4952861;28;20031;-79
2022/06/13 11:49:19;;;;;;;7.07;1.30;;;;;;;20.61;43.34;102241.03;4967173;28;20031;-82
2022/06/13 11:51:49;;;;;;;4.40;1.42;;;;;;;20.62;43.79;102242.72;4951809;28;20026;-81
2022/06/13 11:54:32;;;;;;;4.95;1.25;;;;;;;20.71;44.94;102244.53;4950900;28;20069;-80
2022/06/13 11:57:13;;;;;;;3.75;1.10;;;;;;;20.97;44.85;102231.34;4952273;28;20027;-80
2022/06/13 11:59:59;;;;;;;6.20;1.17;;;;;;;21.35;45.35;102242.88;4951668;28;20054;-79
2022/06/13 12:02:35;;;;;;;7.50;1.20;;;;;;;21.68;42.21;102242.25;4950556;28;20471;-79
2022/06/13 12:05:00;;;;;;;5.05;1.23;;;;;;;21.84;41.99;102247.75;4961794;28;20027;-79
2022/06/13 12:07:35;;;;;;;6.18;1.10;;;;;;;22.08;41.84;102232.94;4970824;28;20035;-79